sensor_id;sensor_type;location;lat;lon;timestamp;pressure;altitude;pressure_sealevel;temperature;humidity
64827;BME280;51265;53.972;12.286;2023-07-20T00:02:00;100379.69;;;12.01;100.00
64827;BME280;51265;53.972;12.286;2023-07-20T00:04:28;100375.78;;;12.02;100.00
64827;BME280;51265;53.972;12.286;2023-07-20T00:06:54;100374.63;;;12.03;100.00
64827;BME280;51265;53.972;12.286;2023-07-20T00:09:20;100376.59;;;12.02;100.00
64827;BME280;51265;53.972;12.286;2023-07-20T00:11:49;100376.78;;;12.06;100.00
64827;BME280;51265;53.972;12.286;2023-07-20T00:14:19;100381.78;;;12.04;100.00
64827;BME280;51265;53.972;12.286;2023-07-20T00:16:46;100392.34;;;12.02;100.00
64827;BME280;51265;53.972;12.286;2023-07-20T00:19:13;100384.06;;;12.02;100.00
64827;BME280;51265;53.972;12.286;2023-07-20T00:21:39;100386.00;;;12.01;100.00
64827;BME280;51265;53.972;12.286;2023-07-20T00:24:06;100386.69;;;12.07;100.00
64827;BME280;51265;53.972;12.286;2023-07-20T00:26:32;100378.59;;;12.10;100.00
64827;BME280;51265;53.972;12.286;2023-07-20T00:28:59;100379.22;;;12.07;100.00
64827;BME280;51265;53.972;12.286;2023-07-20T00:31:25;100382.31;;;12.06;100.00
64827;BME280;51265;53.972;12.286;2023-07-20T00:33:52;100374.84;;;12.06;100.00
64827;BME280;51265;53.972;12.286;2023-07-20T00:36:19;100377.28;;;12.08;100.00
64827;BME280;51265;53.972;12.286;2023-07-20T00:38:57;100374.69;;;12.11;100.00
64827;BME280;51265;53.972;12.286;2023-07-20T00:41:23;100378.25;;;12.12;100.00
64827;BME280;51265;53.972;12.286;2023-07-20T00:43:49;100381.69;;;12.09;100.00
64827;BME280;51265;53.972;12.286;2023-07-20T00:46:16;100379.41;;;12.11;100.00
64827;BME280;51265;53.972;12.286;2023-07-20T00:48:42;100387.81;;;12.06;100.00
64827;BME280;51265;53.972;12.286;2023-07-20T00:51:09;100389.56;;;12.02;100.00
64827;BME280;51265;53.972;12.286;2023-07-20T00:54:02;100389.06;;;12.00;100.00
64827;BME280;51265;53.972;12.286;2023-07-20T00:56:28;100389.91;;;12.00;100.00
64827;BME280;51265;53.972;12.286;2023-07-20T00:58:55;100395.22;;;11.96;100.00
64827;BME280;51265;53.972;12.286;2023-07-20T01:01:22;100393.59;;;11.95;100.00
64827;BME280;51265;53.972;12.286;2023-07-20T01:03:48;100395.84;;;11.93;100.00
64827;BME280;51265;53.972;12.286;2023-07-20T01:06:24;100401.19;;;11.90;100.00
64827;BME280;51265;53.972;12.286;2023-07-20T01:09:15;100407.03;;;11.88;100.00
64827;BME280;51265;53.972;12.286;2023-07-20T01:14:20;100403.44;;;11.88;100.00
64827;BME280;51265;53.972;12.286;2023-07-20T01:16:46;100405.69;;;11.86;100.00
64827;BME280;51265;53.972;12.286;2023-07-20T01:19:13;100407.16;;;11.83;100.00
64827;BME280;51265;53.972;12.286;2023-07-20T01:21:49;100408.03;;;11.79;100.00
64827;BME280;51265;53.972;12.286;2023-07-20T01:24:31;100404.78;;;11.77;100.00
64827;BME280;51265;53.972;12.286;2023-07-20T01:29:35;100419.38;;;11.77;100.00
64827;BME280;51265;53.972;12.286;2023-07-20T01:32:09;100414.47;;;11.74;100.00
64827;BME280;51265;53.972;12.286;2023-07-20T01:34:36;100418.38;;;11.73;100.00
64827;BME280;51265;53.972;12.286;2023-07-20T01:37:03;100424.09;;;11.77;100.00
64827;BME280;51265;53.972;12.286;2023-07-20T01:39:31;100428.19;;;11.79;100.00
64827;BME280;51265;53.972;12.286;2023-07-20T01:41:59;100432.84;;;11.79;100.00
64827;BME280;51265;53.972;12.286;2023-07-20T01:44:27;100426.84;;;11.77;100.00
64827;BME280;51265;53.972;12.286;2023-07-20T01:46:53;100434.50;;;11.80;100.00
64827;BME280;51265;53.972;12.286;2023-07-20T01:49:19;100422.47;;;11.76;100.00
64827;BME280;51265;53.972;12.286;2023-07-20T01:51:46;100419.84;;;11.70;100.00
64827;BME280;51265;53.972;12.286;2023-07-20T01:54:12;100413.47;;;11.70;100.00
64827;BME280;51265;53.972;12.286;2023-07-20T01:56:38;100408.78;;;11.70;100.00
64827;BME280;51265;53.972;12.286;2023-07-20T01:59:05;100417.38;;;11.69;100.00
64827;BME280;51265;53.972;12.286;2023-07-20T02:01:31;100416.56;;;11.68;100.00
64827;BME280;51265;53.972;12.286;2023-07-20T02:03:57;100422.59;;;11.70;100.00
64827;BME280;51265;53.972;12.286;2023-07-20T02:06:24;100428.59;;;11.72;100.00
64827;BME280;51265;53.972;12.286;2023-07-20T02:08:50;100431.03;;;11.74;100.00
64827;BME280;51265;53.972;12.286;2023-07-20T02:11:16;100434.31;;;11.76;100.00
64827;BME280;51265;53.972;12.286;2023-07-20T02:13:42;100427.34;;;11.79;100.00
64827;BME280;51265;53.972;12.286;2023-07-20T02:16:09;100438.09;;;11.80;100.00
64827;BME280;51265;53.972;12.286;2023-07-20T02:18:35;100448.81;;;11.82;100.00
64827;BME280;51265;53.972;12.286;2023-07-20T02:21:02;100445.13;;;11.86;100.00
64827;BME280;51265;53.972;12.286;2023-07-20T02:23:31;100456.81;;;11.83;100.00
64827;BME280;51265;53.972;12.286;2023-07-20T02:25:57;100457.19;;;11.90;100.00
64827;BME280;51265;53.972;12.286;2023-07-20T02:28:24;100458.19;;;11.94;100.00
64827;BME280;51265;53.972;12.286;2023-07-20T02:30:50;100456.16;;;12.00;100.00
64827;BME280;51265;53.972;12.286;2023-07-20T02:33:16;100457.44;;;12.03;100.00
64827;BME280;51265;53.972;12.286;2023-07-20T02:35:42;100457.78;;;12.01;100.00
64827;BME280;51265;53.972;12.286;2023-07-20T02:38:08;100464.72;;;11.99;100.00
64827;BME280;51265;53.972;12.286;2023-07-20T02:40:35;100458.38;;;11.98;100.00
64827;BME280;51265;53.972;12.286;2023-07-20T02:43:01;100464.72;;;11.99;100.00
64827;BME280;51265;53.972;12.286;2023-07-20T02:45:27;100458.06;;;12.00;100.00
64827;BME280;51265;53.972;12.286;2023-07-20T02:47:53;100458.59;;;12.02;100.00
64827;BME280;51265;53.972;12.286;2023-07-20T02:50:46;100456.03;;;12.05;100.00
64827;BME280;51265;53.972;12.286;2023-07-20T02:53:13;100456.31;;;12.04;100.00
64827;BME280;51265;53.972;12.286;2023-07-20T02:55:39;100463.47;;;12.05;100.00
64827;BME280;51265;53.972;12.286;2023-07-20T02:58:05;100467.75;;;12.11;100.00
64827;BME280;51265;53.972;12.286;2023-07-20T03:00:32;100470.00;;;12.09;100.00
64827;BME280;51265;53.972;12.286;2023-07-20T03:02:58;100466.81;;;12.15;100.00
64827;BME280;51265;53.972;12.286;2023-07-20T03:05:25;100467.31;;;12.17;100.00
64827;BME280;51265;53.972;12.286;2023-07-20T03:07:52;100458.38;;;12.20;100.00
64827;BME280;51265;53.972;12.286;2023-07-20T03:10:18;100467.19;;;12.23;100.00
64827;BME280;51265;53.972;12.286;2023-07-20T03:12:44;100467.25;;;12.31;100.00
64827;BME280;51265;53.972;12.286;2023-07-20T03:15:11;100456.72;;;12.33;100.00
64827;BME280;51265;53.972;12.286;2023-07-20T03:17:38;100461.28;;;12.38;100.00
64827;BME280;51265;53.972;12.286;2023-07-20T03:20:05;100453.00;;;12.38;100.00
64827;BME280;51265;53.972;12.286;2023-07-20T03:22:35;100457.59;;;12.42;100.00
64827;BME280;51265;53.972;12.286;2023-07-20T03:25:02;100449.31;;;12.42;100.00
64827;BME280;51265;53.972;12.286;2023-07-20T03:27:28;100453.53;;;12.49;100.00
64827;BME280;51265;53.972;12.286;2023-07-20T03:29:55;100449.34;;;12.51;100.00
64827;BME280;51265;53.972;12.286;2023-07-20T03:32:21;100458.44;;;12.52;100.00
64827;BME280;51265;53.972;12.286;2023-07-20T03:34:47;100451.78;;;12.53;100.00
64827;BME280;51265;53.972;12.286;2023-07-20T03:37:14;100457.50;;;12.56;100.00
64827;BME280;51265;53.972;12.286;2023-07-20T03:39:41;100446.44;;;12.56;100.00
64827;BME280;51265;53.972;12.286;2023-07-20T03:42:07;100446.78;;;12.55;100.00
64827;BME280;51265;53.972;12.286;2023-07-20T03:44:34;100446.63;;;12.60;100.00
64827;BME280;51265;53.972;12.286;2023-07-20T03:47:00;100441.78;;;12.65;100.00
64827;BME280;51265;53.972;12.286;2023-07-20T03:49:26;100441.97;;;12.69;100.00
64827;BME280;51265;53.972;12.286;2023-07-20T03:51:53;100439.72;;;12.71;100.00
64827;BME280;51265;53.972;12.286;2023-07-20T03:54:19;100440.00;;;12.69;100.00
64827;BME280;51265;53.972;12.286;2023-07-20T03:56:45;100430.88;;;12.60;100.00
64827;BME280;51265;53.972;12.286;2023-07-20T03:59:11;100435.59;;;12.60;100.00
64827;BME280;51265;53.972;12.286;2023-07-20T04:01:38;100426.63;;;12.54;100.00
64827;BME280;51265;53.972;12.286;2023-07-20T04:04:07;100423.53;;;12.56;100.00
64827;BME280;51265;53.972;12.286;2023-07-20T04:06:34;100428.44;;;12.59;100.00
64827;BME280;51265;53.972;12.286;2023-07-20T04:09:00;100430.06;;;12.60;100.00
64827;BME280;51265;53.972;12.286;2023-07-20T04:11:27;100436.03;;;12.84;100.00
64827;BME280;51265;53.972;12.286;2023-07-20T04:13:53;100432.41;;;12.75;100.00
64827;BME280;51265;53.972;12.286;2023-07-20T04:16:20;100434.00;;;12.67;100.00
64827;BME280;51265;53.972;12.286;2023-07-20T04:18:46;100429.59;;;12.66;100.00
64827;BME280;51265;53.972;12.286;2023-07-20T04:21:17;100442.00;;;12.78;100.00
64827;BME280;51265;53.972;12.286;2023-07-20T04:23:43;100444.41;;;12.70;100.00
64827;BME280;51265;53.972;12.286;2023-07-20T04:26:10;100445.47;;;12.83;100.00
64827;BME280;51265;53.972;12.286;2023-07-20T04:28:38;100444.19;;;12.89;100.00
64827;BME280;51265;53.972;12.286;2023-07-20T04:31:13;100436.25;;;12.96;100.00
64827;BME280;51265;53.972;12.286;2023-07-20T04:33:39;100435.09;;;12.98;100.00
64827;BME280;51265;53.972;12.286;2023-07-20T04:36:06;100444.41;;;13.02;100.00
64827;BME280;51265;53.972;12.286;2023-07-20T04:38:35;100438.34;;;13.00;100.00
64827;BME280;51265;53.972;12.286;2023-07-20T04:41:09;100445.34;;;12.97;100.00
64827;BME280;51265;53.972;12.286;2023-07-20T04:43:44;100447.00;;;13.07;100.00
64827;BME280;51265;53.972;12.286;2023-07-20T04:46:11;100444.41;;;13.10;100.00
64827;BME280;51265;53.972;12.286;2023-07-20T04:48:38;100449.28;;;13.05;100.00
64827;BME280;51265;53.972;12.286;2023-07-20T04:51:04;100453.94;;;12.95;100.00
64827;BME280;51265;53.972;12.286;2023-07-20T04:53:30;100445.97;;;12.94;100.00
64827;BME280;51265;53.972;12.286;2023-07-20T04:55:57;100442.03;;;12.86;100.00
64827;BME280;51265;53.972;12.286;2023-07-20T04:58:25;100451.00;;;12.83;100.00
64827;BME280;51265;53.972;12.286;2023-07-20T05:00:53;100447.34;;;12.74;100.00
64827;BME280;51265;53.972;12.286;2023-07-20T05:03:20;100447.16;;;12.70;100.00
64827;BME280;51265;53.972;12.286;2023-07-20T05:05:47;100447.34;;;12.74;100.00
64827;BME280;51265;53.972;12.286;2023-07-20T05:08:15;100451.91;;;12.79;100.00
64827;BME280;51265;53.972;12.286;2023-07-20T05:10:42;100458.81;;;12.90;100.00
64827;BME280;51265;53.972;12.286;2023-07-20T05:13:09;100459.47;;;12.95;100.00
64827;BME280;51265;53.972;12.286;2023-07-20T05:15:35;100445.34;;;12.97;100.00
64827;BME280;51265;53.972;12.286;2023-07-20T05:18:03;100452.56;;;13.15;100.00
64827;BME280;51265;53.972;12.286;2023-07-20T05:20:29;100448.91;;;13.37;100.00
64827;BME280;51265;53.972;12.286;2023-07-20T05:22:57;100449.97;;;13.59;100.00
64827;BME280;51265;53.972;12.286;2023-07-20T05:25:24;100437.25;;;13.75;100.00
64827;BME280;51265;53.972;12.286;2023-07-20T05:27:50;100433.38;;;13.93;100.00
64827;BME280;51265;53.972;12.286;2023-07-20T05:30:16;100428.97;;;14.01;100.00
64827;BME280;51265;53.972;12.286;2023-07-20T05:32:42;100420.94;;;14.17;100.00
64827;BME280;51265;53.972;12.286;2023-07-20T05:35:11;100419.13;;;14.56;100.00
64827;BME280;51265;53.972;12.286;2023-07-20T05:37:37;100407.53;;;14.62;100.00
64827;BME280;51265;53.972;12.286;2023-07-20T05:40:05;100395.50;;;14.50;100.00
64827;BME280;51265;53.972;12.286;2023-07-20T05:42:32;100394.72;;;14.32;100.00
64827;BME280;51265;53.972;12.286;2023-07-20T05:44:58;100386.38;;;14.40;100.00
64827;BME280;51265;53.972;12.286;2023-07-20T05:47:24;100397.75;;;14.65;100.00
64827;BME280;51265;53.972;12.286;2023-07-20T05:49:51;100397.13;;;14.98;100.00
64827;BME280;51265;53.972;12.286;2023-07-20T05:52:17;100387.44;;;15.33;100.00
64827;BME280;51265;53.972;12.286;2023-07-20T05:54:43;100378.13;;;15.08;100.00
64827;BME280;51265;53.972;12.286;2023-07-20T05:57:09;100372.16;;;14.98;100.00
64827;BME280;51265;53.972;12.286;2023-07-20T05:59:36;100384.22;;;15.02;100.00
64827;BME280;51265;53.972;12.286;2023-07-20T06:02:04;100372.91;;;15.07;100.00
64827;BME280;51265;53.972;12.286;2023-07-20T06:04:30;100367.47;;;15.19;100.00
64827;BME280;51265;53.972;12.286;2023-07-20T06:06:56;100360.88;;;15.03;100.00
64827;BME280;51265;53.972;12.286;2023-07-20T06:09:23;100366.75;;;15.01;100.00
64827;BME280;51265;53.972;12.286;2023-07-20T06:11:49;100370.09;;;14.86;100.00
64827;BME280;51265;53.972;12.286;2023-07-20T06:14:16;100366.97;;;14.87;100.00
64827;BME280;51265;53.972;12.286;2023-07-20T06:16:42;100365.13;;;15.00;100.00
64827;BME280;51265;53.972;12.286;2023-07-20T06:19:08;100360.97;;;14.85;100.00
64827;BME280;51265;53.972;12.286;2023-07-20T06:21:37;100363.81;;;14.68;100.00
64827;BME280;51265;53.972;12.286;2023-07-20T06:24:04;100359.03;;;14.77;100.00
64827;BME280;51265;53.972;12.286;2023-07-20T06:26:30;100367.84;;;15.09;100.00
64827;BME280;51265;53.972;12.286;2023-07-20T06:28:57;100361.25;;;15.22;100.00
64827;BME280;51265;53.972;12.286;2023-07-20T06:31:23;100356.06;;;15.12;100.00
64827;BME280;51265;53.972;12.286;2023-07-20T06:33:49;100355.00;;;15.25;100.00
64827;BME280;51265;53.972;12.286;2023-07-20T06:36:18;100348.19;;;15.43;100.00
64827;BME280;51265;53.972;12.286;2023-07-20T06:38:45;100348.00;;;15.49;100.00
64827;BME280;51265;53.972;12.286;2023-07-20T06:41:11;100346.44;;;15.39;100.00
64827;BME280;51265;53.972;12.286;2023-07-20T06:43:37;100333.16;;;15.44;100.00
64827;BME280;51265;53.972;12.286;2023-07-20T06:46:03;100336.56;;;15.71;100.00
64827;BME280;51265;53.972;12.286;2023-07-20T06:48:29;100323.00;;;15.90;100.00
64827;BME280;51265;53.972;12.286;2023-07-20T06:50:56;100291.00;;;15.72;100.00
64827;BME280;51265;53.972;12.286;2023-07-20T06:53:22;100277.56;;;15.74;100.00
64827;BME280;51265;53.972;12.286;2023-07-20T06:55:49;100271.84;;;15.91;100.00
64827;BME280;51265;53.972;12.286;2023-07-20T06:58:15;100250.56;;;15.96;97.23
64827;BME280;51265;53.972;12.286;2023-07-20T07:00:41;100229.78;;;16.14;93.09
64827;BME280;51265;53.972;12.286;2023-07-20T07:03:08;100216.81;;;16.30;90.00
64827;BME280;51265;53.972;12.286;2023-07-20T07:05:37;100174.28;;;16.42;86.13
64827;BME280;51265;53.972;12.286;2023-07-20T07:08:05;100153.59;;;16.15;84.31
64827;BME280;51265;53.972;12.286;2023-07-20T07:10:31;100140.81;;;16.38;83.46
64827;BME280;51265;53.972;12.286;2023-07-20T07:12:58;100115.09;;;16.54;81.76
64827;BME280;51265;53.972;12.286;2023-07-20T07:15:24;100100.19;;;16.86;80.44
64827;BME280;51265;53.972;12.286;2023-07-20T07:17:50;100087.25;;;16.78;79.54
64827;BME280;51265;53.972;12.286;2023-07-20T07:20:17;100055.94;;;16.41;77.67
64827;BME280;51265;53.972;12.286;2023-07-20T07:22:43;100057.44;;;16.38;78.13
64827;BME280;51265;53.972;12.286;2023-07-20T07:25:10;100065.88;;;16.14;78.74
64827;BME280;51265;53.972;12.286;2023-07-20T07:27:36;100083.91;;;16.20;79.42
64827;BME280;51265;53.972;12.286;2023-07-20T07:30:03;100076.63;;;16.68;78.25
64827;BME280;51265;53.972;12.286;2023-07-20T07:32:29;100016.16;;;16.65;76.17
64827;BME280;51265;53.972;12.286;2023-07-20T07:34:55;100004.13;;;16.61;75.17
64827;BME280;51265;53.972;12.286;2023-07-20T07:37:22;99991.91;;;16.78;73.77
64827;BME280;51265;53.972;12.286;2023-07-20T07:39:49;99967.00;;;16.69;73.12
64827;BME280;51265;53.972;12.286;2023-07-20T07:42:15;99978.72;;;16.90;72.49
64827;BME280;51265;53.972;12.286;2023-07-20T07:44:41;100079.34;;;16.80;70.72
64827;BME280;51265;53.972;12.286;2023-07-20T07:47:08;100068.41;;;17.15;69.89
64827;BME280;51265;53.972;12.286;2023-07-20T07:49:34;100082.97;;;17.25;69.67
64827;BME280;51265;53.972;12.286;2023-07-20T07:52:01;100100.72;;;17.20;70.69
64827;BME280;51265;53.972;12.286;2023-07-20T07:54:28;100100.47;;;17.25;70.74
64827;BME280;51265;53.972;12.286;2023-07-20T07:56:55;100085.53;;;17.02;70.62
64827;BME280;51265;53.972;12.286;2023-07-20T07:59:22;100104.84;;;16.82;71.76
64827;BME280;51265;53.972;12.286;2023-07-20T08:01:48;100097.53;;;16.25;71.60
64827;BME280;51265;53.972;12.286;2023-07-20T08:04:15;100119.56;;;16.30;71.74
64827;BME280;51265;53.972;12.286;2023-07-20T08:06:41;100128.81;;;17.15;70.73
64827;BME280;51265;53.972;12.286;2023-07-20T08:09:07;100123.78;;;17.49;69.72
64827;BME280;51265;53.972;12.286;2023-07-20T08:11:34;100122.47;;;17.14;69.97
64827;BME280;51265;53.972;12.286;2023-07-20T08:14:00;100133.16;;;16.60;71.19
64827;BME280;51265;53.972;12.286;2023-07-20T08:16:27;100145.16;;;16.11;72.73
64827;BME280;51265;53.972;12.286;2023-07-20T08:19:07;100178.22;;;15.92;74.60
64827;BME280;51265;53.972;12.286;2023-07-20T08:21:34;100206.94;;;16.69;73.69
64827;BME280;51265;53.972;12.286;2023-07-20T08:24:00;100187.00;;;17.48;72.08
64827;BME280;51265;53.972;12.286;2023-07-20T08:26:26;100143.69;;;17.95;68.91
64827;BME280;51265;53.972;12.286;2023-07-20T08:28:52;100131.25;;;18.08;67.44
64827;BME280;51265;53.972;12.286;2023-07-20T08:31:18;100109.66;;;17.41;66.96
64827;BME280;51265;53.972;12.286;2023-07-20T08:33:45;100139.44;;;17.25;68.62
64827;BME280;51265;53.972;12.286;2023-07-20T08:36:11;100137.22;;;17.03;69.12
64827;BME280;51265;53.972;12.286;2023-07-20T08:38:37;100138.84;;;17.04;68.75
64827;BME280;51265;53.972;12.286;2023-07-20T08:41:03;100152.44;;;17.65;68.40
64827;BME280;51265;53.972;12.286;2023-07-20T08:43:30;100107.16;;;17.68;65.32
64827;BME280;51265;53.972;12.286;2023-07-20T08:45:57;100130.34;;;18.04;66.09
64827;BME280;51265;53.972;12.286;2023-07-20T08:48:24;100126.97;;;18.30;65.90
64827;BME280;51265;53.972;12.286;2023-07-20T08:51:24;100082.31;;;18.26;63.44
64827;BME280;51265;53.972;12.286;2023-07-20T08:53:52;100089.16;;;18.13;63.96
64827;BME280;51265;53.972;12.286;2023-07-20T08:56:19;100081.03;;;18.39;62.76
64827;BME280;51265;53.972;12.286;2023-07-20T08:58:47;100045.81;;;17.64;61.35
64827;BME280;51265;53.972;12.286;2023-07-20T09:01:14;100043.84;;;17.49;61.66
64827;BME280;51265;53.972;12.286;2023-07-20T09:03:41;100100.09;;;18.37;62.22
64827;BME280;51265;53.972;12.286;2023-07-20T09:06:10;100083.44;;;18.41;61.53
64827;BME280;51265;53.972;12.286;2023-07-20T09:08:40;100117.03;;;18.83;62.35
64827;BME280;51265;53.972;12.286;2023-07-20T09:11:07;100066.78;;;18.45;60.88
64827;BME280;51265;53.972;12.286;2023-07-20T09:13:34;100114.25;;;19.03;61.36
64827;BME280;51265;53.972;12.286;2023-07-20T09:16:00;100023.78;;;18.84;58.07
64827;BME280;51265;53.972;12.286;2023-07-20T09:18:29;100042.50;;;18.45;59.54
64827;BME280;51265;53.972;12.286;2023-07-20T09:21:01;100032.00;;;18.58;58.31
64827;BME280;51265;53.972;12.286;2023-07-20T09:23:35;100051.56;;;18.77;59.10
64827;BME280;51265;53.972;12.286;2023-07-20T09:26:13;100033.19;;;18.57;59.20
64827;BME280;51265;53.972;12.286;2023-07-20T09:28:44;100050.69;;;18.73;59.44
64827;BME280;51265;53.972;12.286;2023-07-20T09:31:16;100063.88;;;18.96;58.84
64827;BME280;51265;53.972;12.286;2023-07-20T09:33:43;100038.38;;;18.97;58.59
64827;BME280;51265;53.972;12.286;2023-07-20T09:36:09;100032.91;;;18.62;58.97
64827;BME280;51265;53.972;12.286;2023-07-20T09:38:38;100077.47;;;18.78;59.59
64827;BME280;51265;53.972;12.286;2023-07-20T09:41:07;100051.63;;;18.81;57.97
64827;BME280;51265;53.972;12.286;2023-07-20T09:43:34;100034.38;;;18.95;57.67
64827;BME280;51265;53.972;12.286;2023-07-20T09:46:01;100070.97;;;19.12;58.15
64827;BME280;51265;53.972;12.286;2023-07-20T09:48:27;100035.97;;;18.96;57.13
64827;BME280;51265;53.972;12.286;2023-07-20T09:50:54;100063.00;;;19.34;57.77
64827;BME280;51265;53.972;12.286;2023-07-20T09:53:21;100021.78;;;19.50;55.73
64827;BME280;51265;53.972;12.286;2023-07-20T09:55:47;100030.97;;;19.51;55.76
64827;BME280;51265;53.972;12.286;2023-07-20T09:58:15;100024.94;;;19.03;56.12
64827;BME280;51265;53.972;12.286;2023-07-20T10:00:42;100058.53;;;19.29;56.81
64827;BME280;51265;53.972;12.286;2023-07-20T10:03:18;100048.09;;;19.26;56.00
64827;BME280;51265;53.972;12.286;2023-07-20T10:05:48;100036.72;;;19.84;54.40
64827;BME280;51265;53.972;12.286;2023-07-20T10:08:17;100042.53;;;19.99;54.20
64827;BME280;51265;53.972;12.286;2023-07-20T10:10:45;99971.63;;;19.08;53.54
64827;BME280;51265;53.972;12.286;2023-07-20T10:13:26;100008.78;;;19.12;54.66
64827;BME280;51265;53.972;12.286;2023-07-20T10:16:05;100027.75;;;19.49;54.50
64827;BME280;51265;53.972;12.286;2023-07-20T10:18:50;100026.38;;;19.16;55.20
64827;BME280;51265;53.972;12.286;2023-07-20T10:21:19;100085.69;;;20.01;56.31
64827;BME280;51265;53.972;12.286;2023-07-20T10:23:46;100058.50;;;19.98;54.94
64827;BME280;51265;53.972;12.286;2023-07-20T10:26:13;100067.69;;;20.25;54.83
64827;BME280;51265;53.972;12.286;2023-07-20T10:28:39;99988.09;;;19.39;53.60
64827;BME280;51265;53.972;12.286;2023-07-20T10:31:08;100033.47;;;19.33;55.08
64827;BME280;51265;53.972;12.286;2023-07-20T10:33:39;100020.25;;;19.07;55.42
64827;BME280;51265;53.972;12.286;2023-07-20T10:41:29;100043.59;;;18.60;56.26
64827;BME280;51265;53.972;12.286;2023-07-20T10:44:04;100047.66;;;19.24;55.33
64827;BME280;51265;53.972;12.286;2023-07-20T10:49:07;100039.59;;;19.19;54.71
64827;BME280;51265;53.972;12.286;2023-07-20T10:51:42;100030.06;;;18.78;55.62
64827;BME280;51265;53.972;12.286;2023-07-20T10:56:58;100089.75;;;18.38;58.22
64827;BME280;51265;53.972;12.286;2023-07-20T10:59:43;100118.47;;;18.58;58.49
64827;BME280;51265;53.972;12.286;2023-07-20T11:02:09;100088.03;;;18.33;57.98
64827;BME280;51265;53.972;12.286;2023-07-20T11:04:40;100129.97;;;18.91;58.17
64827;BME280;51265;53.972;12.286;2023-07-20T11:07:06;100150.06;;;19.82;56.80
64827;BME280;51265;53.972;12.286;2023-07-20T11:09:37;100121.00;;;19.63;56.18
64827;BME280;51265;53.972;12.286;2023-07-20T11:12:15;100106.84;;;19.76;55.83
64827;BME280;51265;53.972;12.286;2023-07-20T11:14:44;100123.78;;;20.36;55.34
64827;BME280;51265;53.972;12.286;2023-07-20T11:17:18;100101.69;;;20.54;54.39
64827;BME280;51265;53.972;12.286;2023-07-20T11:19:49;100086.00;;;20.79;53.87
64827;BME280;51265;53.972;12.286;2023-07-20T11:22:16;100045.44;;;20.06;54.07
64827;BME280;51265;53.972;12.286;2023-07-20T11:24:43;100045.25;;;19.46;54.58
64827;BME280;51265;53.972;12.286;2023-07-20T11:27:10;100055.47;;;19.15;55.48
64827;BME280;51265;53.972;12.286;2023-07-20T11:29:37;100067.94;;;18.98;56.06
64827;BME280;51265;53.972;12.286;2023-07-20T11:32:04;100113.56;;;19.98;55.81
64827;BME280;51265;53.972;12.286;2023-07-20T11:34:32;100100.63;;;20.39;53.91
64827;BME280;51265;53.972;12.286;2023-07-20T11:36:59;100052.53;;;20.00;53.48
64827;BME280;51265;53.972;12.286;2023-07-20T11:39:26;100048.13;;;19.99;53.77
64827;BME280;51265;53.972;12.286;2023-07-20T11:41:54;100035.88;;;19.34;54.73
64827;BME280;51265;53.972;12.286;2023-07-20T11:44:23;100068.97;;;18.71;56.58
64827;BME280;51265;53.972;12.286;2023-07-20T11:47:01;100121.09;;;17.84;59.54
64827;BME280;51265;53.972;12.286;2023-07-20T11:49:41;100184.03;;;17.01;63.15
64827;BME280;51265;53.972;12.286;2023-07-20T11:52:10;100238.34;;;16.58;66.55
64827;BME280;51265;53.972;12.286;2023-07-20T11:54:38;100257.69;;;16.42;67.63
64827;BME280;51265;53.972;12.286;2023-07-20T11:57:05;100281.19;;;16.69;68.08
64827;BME280;51265;53.972;12.286;2023-07-20T11:59:32;100285.53;;;17.31;65.84
64827;BME280;51265;53.972;12.286;2023-07-20T12:02:02;100261.25;;;18.32;63.40
64827;BME280;51265;53.972;12.286;2023-07-20T12:04:31;100238.31;;;19.25;60.74
64827;BME280;51265;53.972;12.286;2023-07-20T12:06:58;100241.47;;;20.04;59.48
64827;BME280;51265;53.972;12.286;2023-07-20T12:09:25;100178.19;;;19.70;57.73
64827;BME280;51265;53.972;12.286;2023-07-20T12:11:51;100188.34;;;19.81;57.87
64827;BME280;51265;53.972;12.286;2023-07-20T12:14:17;100161.56;;;19.15;58.38
64827;BME280;51265;53.972;12.286;2023-07-20T12:16:44;100188.97;;;18.74;60.53
64827;BME280;51265;53.972;12.286;2023-07-20T12:19:13;100228.94;;;18.78;61.51
64827;BME280;51265;53.972;12.286;2023-07-20T12:21:41;100236.09;;;19.34;61.07
64827;BME280;51265;53.972;12.286;2023-07-20T12:24:13;100201.94;;;19.40;60.05
64827;BME280;51265;53.972;12.286;2023-07-20T12:26:42;100210.31;;;19.21;60.46
64827;BME280;51265;53.972;12.286;2023-07-20T12:29:09;100222.03;;;19.88;59.96
64827;BME280;51265;53.972;12.286;2023-07-20T12:31:36;100191.03;;;19.74;59.13
64827;BME280;51265;53.972;12.286;2023-07-20T12:34:02;100194.44;;;19.45;59.94
64827;BME280;51265;53.972;12.286;2023-07-20T12:36:29;100208.13;;;19.11;61.18
64827;BME280;51265;53.972;12.286;2023-07-20T12:38:57;100241.53;;;20.08;60.49
64827;BME280;51265;53.972;12.286;2023-07-20T12:41:24;100235.63;;;20.59;59.23
64827;BME280;51265;53.972;12.286;2023-07-20T12:43:50;100164.88;;;20.09;58.15
64827;BME280;51265;53.972;12.286;2023-07-20T12:46:16;100171.47;;;20.20;57.79
64827;BME280;51265;53.972;12.286;2023-07-20T12:48:43;100142.03;;;20.83;54.84
64827;BME280;51265;53.972;12.286;2023-07-20T12:51:09;100100.63;;;20.39;54.38
64827;BME280;51265;53.972;12.286;2023-07-20T12:53:37;100095.75;;;19.60;56.29
64827;BME280;51265;53.972;12.286;2023-07-20T12:56:03;100125.69;;;19.59;56.79